Comotara, Kansas
Current Conditions -  °F | °C
As of 4:54 PM on Tuesday 27 Jan 2015 (Local Time) from KAAO Reporting Station
Clear Clear  
Wind Chill: 68°   Ceiling: Unl
Heat Index: 68°   Visibility: 10mi
Dew Point: 36°   Wind: 13mph
Humidity: 31%   Direction: 180°S
Pressure: 30.01"   Gusts: NA
Location:  37.7646°N, 97.2186°W
Report Text: KAAO 272254Z AUTO 18011KT 10SM CLR 20/02 A3001 RMK AO2 SLP162 T02000022
Loading
Personal Weather Stations






























Interactive Weather Map New forecast layout! Learn more

10-Day Weather Forecast

Advertisements
Track Severe Weather on mobile